createdAt,value
2018-06-23T00:01:42.862Z,45.14
2018-06-23T00:03:48.146Z,45.21
2018-06-23T00:05:53.503Z,44.75
2018-06-23T00:07:58.943Z,44.68
2018-06-23T00:10:04.500Z,45.10
2018-06-23T00:12:09.933Z,45.27
2018-06-23T00:14:17.240Z,44.95
2018-06-23T00:16:22.845Z,45.27
2018-06-23T00:18:28.152Z,45.91
2018-06-23T00:20:33.546Z,45.70
2018-06-23T00:22:39.007Z,45.23
2018-06-23T00:24:44.571Z,45.14
2018-06-23T00:26:49.925Z,45.46
2018-06-23T00:28:55.276Z,46.11
2018-06-23T00:31:00.560Z,45.80
2018-06-23T00:33:05.944Z,45.62
2018-06-23T00:35:11.025Z,46.21
2018-06-23T00:37:16.375Z,45.67
2018-06-23T00:39:21.727Z,46.28
2018-06-23T00:41:27.178Z,45.81
2018-06-23T00:43:32.559Z,45.92
2018-06-23T00:45:37.868Z,45.57
2018-06-23T00:47:43.305Z,45.54
2018-06-23T00:49:48.310Z,45.92
2018-06-23T00:51:53.675Z,46.53
2018-06-23T00:53:59.144Z,46.52
2018-06-23T00:56:04.523Z,46.24
2018-06-23T00:58:09.881Z,45.91
2018-06-23T01:00:15.380Z,45.63
2018-06-23T01:02:20.700Z,45.86
2018-06-23T01:04:26.035Z,46.40
2018-06-23T01:06:31.352Z,46.15
2018-06-23T01:08:36.664Z,46.37
2018-06-23T01:10:41.658Z,46.21
2018-06-23T01:12:46.927Z,46.45
2018-06-23T01:14:52.264Z,46.59
2018-06-23T01:16:57.907Z,46.37
2018-06-23T01:19:03.244Z,46.64
2018-06-23T01:21:08.724Z,46.45
2018-06-23T01:23:14.144Z,47.00
2018-06-23T01:25:19.913Z,47.04
2018-06-23T01:27:25.081Z,47.31
2018-06-23T01:29:30.889Z,47.32
2018-06-23T01:31:36.325Z,47.02
2018-06-23T01:33:41.646Z,47.27
2018-06-23T01:35:47.015Z,46.79
2018-06-23T01:37:52.414Z,46.87
2018-06-23T01:39:57.403Z,47.57
2018-06-23T01:42:02.672Z,47.14
2018-06-23T01:44:08.151Z,46.88
2018-06-23T01:46:13.419Z,47.19
2018-06-23T01:48:20.030Z,47.69
2018-06-23T01:50:25.384Z,47.28
2018-06-23T01:52:30.656Z,47.61
2018-06-23T01:54:36.447Z,47.46
2018-06-23T01:56:42.004Z,47.37
2018-06-23T01:58:47.299Z,47.38
2018-06-23T02:00:52.624Z,47.80
2018-06-23T02:02:57.967Z,47.89
2018-06-23T02:05:03.357Z,47.94
2018-06-23T02:07:08.672Z,48.07
2018-06-23T02:09:14.104Z,47.35
2018-06-23T02:11:20.228Z,47.35
2018-06-23T02:13:25.629Z,47.91
2018-06-23T02:15:36.720Z,47.74
2018-06-23T02:17:47.317Z,47.96
2018-06-23T02:19:57.831Z,47.53
2018-06-23T02:22:08.287Z,48.24
2018-06-23T02:24:18.592Z,48.22
2018-06-23T02:26:29.168Z,48.04
2018-06-23T02:28:39.659Z,47.86
2018-06-23T02:30:50.017Z,47.85
2018-06-23T02:32:55.383Z,47.55
2018-06-23T02:35:07.339Z,47.52
2018-06-23T02:37:12.703Z,47.48
2018-06-23T02:39:18.209Z,47.90
2018-06-23T02:41:27.608Z,47.56
2018-06-23T02:43:33.091Z,48.51
2018-06-23T02:45:38.534Z,48.23
2018-06-23T02:47:44.022Z,47.97
2018-06-23T02:49:49.419Z,48.52
2018-06-23T02:51:54.894Z,47.85
2018-06-23T02:54:00.259Z,48.75
2018-06-23T02:56:05.551Z,47.93
2018-06-23T02:58:10.844Z,48.13
2018-06-23T03:00:15.970Z,48.50
2018-06-23T03:02:21.229Z,47.96
2018-06-23T03:04:26.581Z,47.90
2018-06-23T03:06:32.048Z,48.15
2018-06-23T03:08:37.629Z,47.95
2018-06-23T03:10:42.939Z,48.50
2018-06-23T03:12:48.389Z,48.29
2018-06-23T03:14:53.781Z,48.85
2018-06-23T03:16:59.113Z,48.71
2018-06-23T03:19:04.467Z,48.37
2018-06-23T03:21:09.952Z,48.52
2018-06-23T03:23:15.194Z,48.67
2018-06-23T03:25:20.488Z,48.52
2018-06-23T03:27:25.802Z,48.36
2018-06-23T03:29:31.156Z,48.01
2018-06-23T03:31:36.640Z,48.00
2018-06-23T03:33:42.784Z,48.59
2018-06-23T03:35:48.240Z,48.35
2018-06-23T03:37:53.748Z,48.49
2018-06-23T03:39:59.222Z,48.43
2018-06-23T03:42:04.593Z,48.93
2018-06-23T03:44:10.034Z,49.04
2018-06-23T03:46:15.499Z,49.14
2018-06-23T03:48:20.787Z,48.45
2018-06-23T03:50:26.192Z,48.96
2018-06-23T03:52:31.477Z,49.12
2018-06-23T03:54:39.890Z,48.86
2018-06-23T03:56:45.198Z,48.98
2018-06-23T03:58:50.544Z,49.16
2018-06-23T04:00:55.963Z,49.44
2018-06-23T04:03:01.403Z,49.82
2018-06-23T04:05:06.519Z,49.88
2018-06-23T04:07:11.860Z,49.67
2018-06-23T04:09:17.219Z,49.90
2018-06-23T04:11:22.541Z,49.67
2018-06-23T04:13:27.851Z,49.96
2018-06-23T04:15:33.227Z,49.59
2018-06-23T04:17:38.553Z,49.47
2018-06-23T04:19:43.647Z,49.24
2018-06-23T04:21:48.937Z,49.74
2018-06-23T04:23:54.272Z,49.21
2018-06-23T04:25:59.576Z,49.86
2018-06-23T04:28:04.980Z,49.58
2018-06-23T04:30:10.296Z,49.52
2018-06-23T04:32:15.995Z,49.46
2018-06-23T04:34:21.403Z,49.42
2018-06-23T04:36:26.856Z,48.79
2018-06-23T04:38:32.159Z,49.31
2018-06-23T04:40:37.580Z,49.56
2018-06-23T04:42:42.788Z,49.26
2018-06-23T04:44:48.068Z,48.98
2018-06-23T04:46:53.416Z,49.17
2018-06-23T04:48:58.828Z,48.99
2018-06-23T04:51:04.197Z,49.63
2018-06-23T04:53:09.600Z,49.77
2018-06-23T04:55:14.966Z,49.34
2018-06-23T04:57:20.691Z,49.77
2018-06-23T04:59:25.985Z,50.03
2018-06-23T05:01:31.329Z,49.68
2018-06-23T05:03:36.732Z,49.94
2018-06-23T05:05:42.169Z,50.27
2018-06-23T05:07:47.682Z,49.89
2018-06-23T05:09:53.590Z,49.62
2018-06-23T05:11:58.968Z,49.69
2018-06-23T05:14:04.459Z,49.54
2018-06-23T05:16:09.697Z,50.07
2018-06-23T05:18:15.059Z,50.14
2018-06-23T05:20:20.684Z,49.71
2018-06-23T05:22:26.001Z,49.47
2018-06-23T05:24:31.409Z,49.50
2018-06-23T05:26:36.863Z,49.18
2018-06-23T05:28:42.404Z,50.04
2018-06-23T05:30:47.849Z,50.09
2018-06-23T05:32:53.369Z,49.58
2018-06-23T05:34:58.650Z,49.53
2018-06-23T05:37:03.989Z,49.32
2018-06-23T05:39:10.330Z,50.17
2018-06-23T05:41:15.727Z,49.73
2018-06-23T05:43:21.330Z,49.55
2018-06-23T05:45:26.726Z,49.84
2018-06-23T05:47:32.240Z,49.45
2018-06-23T05:49:37.547Z,49.71
2018-06-23T05:51:43.028Z,49.19
2018-06-23T05:53:48.352Z,49.72
2018-06-23T05:55:53.626Z,49.82
2018-06-23T05:57:58.868Z,48.98
2018-06-23T06:00:04.435Z,49.77
2018-06-23T06:02:10.192Z,49.45
2018-06-23T06:04:15.553Z,49.25
2018-06-23T06:06:21.034Z,49.10
2018-06-23T06:08:26.465Z,49.40
2018-06-23T06:10:31.882Z,49.19
2018-06-23T06:12:42.916Z,49.52
2018-06-23T06:14:53.959Z,50.32
2018-06-23T06:17:23.640Z,50.73
2018-06-23T06:19:34.995Z,50.49
2018-06-23T06:21:45.955Z,50.18
2018-06-23T06:23:51.602Z,50.14
2018-06-23T06:25:57.109Z,49.71
2018-06-23T06:28:02.484Z,48.99
2018-06-23T06:30:09.695Z,48.49
2018-06-23T06:32:15.063Z,47.30
2018-06-23T06:34:20.670Z,46.53
2018-06-23T06:36:26.303Z,46.15
2018-06-23T06:38:31.624Z,45.37
2018-06-23T06:40:37.030Z,44.40
2018-06-23T06:42:42.421Z,44.08
2018-06-23T06:44:48.031Z,44.12
2018-06-23T06:46:54.388Z,43.52
2018-06-23T06:48:59.777Z,43.15
2018-06-23T06:51:05.259Z,42.63
2018-06-23T06:53:10.594Z,42.70
2018-06-23T06:55:16.007Z,42.81
2018-06-23T06:57:21.516Z,42.54
2018-06-23T06:59:26.850Z,42.14
2018-06-23T07:01:32.195Z,41.01
2018-06-23T07:03:37.639Z,41.51
2018-06-23T07:05:42.835Z,41.76
2018-06-23T07:07:48.224Z,40.85
2018-06-23T07:09:53.736Z,41.12
2018-06-23T07:11:58.783Z,41.75
2018-06-23T07:14:05.212Z,41.19
2018-06-23T07:16:10.676Z,41.28
2018-06-23T07:18:16.057Z,40.04
2018-06-23T07:20:21.521Z,39.75
2018-06-23T07:22:27.044Z,40.65
2018-06-23T07:24:32.744Z,40.94
2018-06-23T07:26:37.756Z,40.10
2018-06-23T07:28:43.189Z,40.49
2018-06-23T07:30:48.634Z,41.28
2018-06-23T07:32:54.018Z,40.47
2018-06-23T07:34:59.460Z,40.86
2018-06-23T07:37:13.764Z,41.06
2018-06-23T07:39:33.585Z,40.82
2018-06-23T07:41:47.327Z,41.31
2018-06-23T07:43:52.925Z,40.85
2018-06-23T07:45:58.341Z,41.19
2018-06-23T07:48:03.824Z,40.68
2018-06-23T07:50:09.367Z,41.51
2018-06-23T07:52:14.708Z,41.18
2018-06-23T07:54:21.050Z,41.67
2018-06-23T07:56:26.480Z,41.99
2018-06-23T07:58:31.830Z,41.78
2018-06-23T08:00:36.886Z,42.08
2018-06-23T08:02:42.176Z,42.00
2018-06-23T08:04:47.824Z,41.62
2018-06-23T08:06:53.304Z,42.10
2018-06-23T08:08:58.864Z,41.22
2018-06-23T08:11:04.283Z,41.16
2018-06-23T08:13:09.815Z,41.44
2018-06-23T08:15:15.241Z,41.99
2018-06-23T08:17:21.101Z,41.36
2018-06-23T08:19:26.445Z,41.76
2018-06-23T08:21:31.834Z,41.66
2018-06-23T08:23:37.439Z,41.66
2018-06-23T08:25:42.872Z,40.81
2018-06-23T08:27:48.256Z,40.80
2018-06-23T08:29:53.745Z,41.22
2018-06-23T08:31:59.236Z,41.25
2018-06-23T08:34:04.954Z,41.11
2018-06-23T08:36:10.576Z,41.42
2018-06-23T08:38:15.672Z,40.88
2018-06-23T08:40:21.240Z,41.26
2018-06-23T08:42:26.730Z,40.70
2018-06-23T08:44:32.223Z,40.72
2018-06-23T08:46:37.644Z,41.55
2018-06-23T08:48:43.009Z,41.06
2018-06-23T08:50:48.376Z,41.66
2018-06-23T08:52:53.790Z,41.36
2018-06-23T08:54:59.217Z,41.70
2018-06-23T08:57:04.790Z,40.83
2018-06-23T08:59:10.225Z,40.47
2018-06-23T09:01:15.628Z,41.03
2018-06-23T09:03:21.164Z,40.34
2018-06-23T09:05:26.504Z,40.47
2018-06-23T09:07:31.857Z,40.24
2018-06-23T09:09:37.255Z,40.17
2018-06-23T09:11:42.875Z,40.22
2018-06-23T09:13:48.380Z,39.97
2018-06-23T09:15:53.862Z,39.78
2018-06-23T09:17:59.331Z,40.43
2018-06-23T09:20:04.871Z,40.01
2018-06-23T09:22:10.112Z,40.01
2018-06-23T09:24:15.383Z,40.36
2018-06-23T09:26:21.276Z,40.26
2018-06-23T09:28:26.711Z,39.78
2018-06-23T09:30:32.332Z,40.34
2018-06-23T09:32:37.807Z,39.39
2018-06-23T09:34:43.008Z,39.57
2018-06-23T09:36:48.394Z,39.79
2018-06-23T09:38:53.475Z,39.73
2018-06-23T09:40:58.970Z,39.60
2018-06-23T09:43:04.384Z,39.35
2018-06-23T09:45:09.779Z,38.40
2018-06-23T09:47:15.260Z,38.59
2018-06-23T09:49:21.308Z,38.64
2018-06-23T09:51:27.328Z,39.06
2018-06-23T09:53:33.219Z,39.12
2018-06-23T09:55:38.660Z,38.30
2018-06-23T09:57:44.101Z,38.31
2018-06-23T09:59:49.732Z,38.49
2018-06-23T10:02:01.669Z,39.00
2018-06-23T10:04:07.135Z,38.35
2018-06-23T10:06:12.488Z,38.25
2018-06-23T10:08:17.869Z,39.11
2018-06-23T10:10:23.459Z,38.95
2018-06-23T10:12:28.799Z,39.04
2018-06-23T10:14:34.248Z,38.68
2018-06-23T10:16:39.670Z,38.76
2018-06-23T10:18:45.060Z,38.63
2018-06-23T10:20:50.573Z,37.82
2018-06-23T10:22:56.096Z,37.95
2018-06-23T10:25:01.568Z,38.44
2018-06-23T10:27:06.980Z,38.10
2018-06-23T10:29:12.468Z,38.55
2018-06-23T10:31:17.878Z,38.07
2018-06-23T10:33:23.251Z,37.36
2018-06-23T10:35:28.664Z,37.22
2018-06-23T10:37:34.867Z,37.62
2018-06-23T10:39:40.429Z,37.28
2018-06-23T10:41:45.833Z,38.22
2018-06-23T10:43:51.254Z,37.24
2018-06-23T10:45:56.357Z,37.83
2018-06-23T10:48:01.756Z,37.65
2018-06-23T10:50:07.378Z,36.67
2018-06-23T10:52:13.113Z,37.19
2018-06-23T10:54:18.524Z,36.58
2018-06-23T10:56:24.392Z,36.83
2018-06-23T10:58:29.865Z,35.77
2018-06-23T11:00:35.353Z,36.56
2018-06-23T11:02:40.774Z,36.08
2018-06-23T11:04:46.394Z,36.86
2018-06-23T11:06:51.832Z,35.92
2018-06-23T11:08:57.262Z,36.08
2018-06-23T11:11:02.320Z,35.82
2018-06-23T11:13:07.718Z,35.78
2018-06-23T11:15:13.186Z,35.87
2018-06-23T11:17:18.535Z,36.05
2018-06-23T11:19:23.982Z,36.57
2018-06-23T11:21:29.456Z,35.78
2018-06-23T11:23:34.864Z,36.31
2018-06-23T11:25:40.378Z,35.93
2018-06-23T11:27:45.725Z,35.69
2018-06-23T11:29:51.588Z,35.64
2018-06-23T11:31:57.008Z,35.28
2018-06-23T11:34:02.550Z,34.81
2018-06-23T11:36:08.079Z,35.64
2018-06-23T11:38:13.263Z,35.50
2018-06-23T11:40:18.664Z,35.10
2018-06-23T11:42:24.028Z,35.37
2018-06-23T11:44:29.525Z,34.35
2018-06-23T11:46:34.959Z,34.61
2018-06-23T11:48:40.495Z,33.98
2018-06-23T11:50:46.053Z,34.90
2018-06-23T11:52:51.535Z,34.01
2018-06-23T11:54:57.145Z,35.05
2018-06-23T11:57:02.540Z,34.54
2018-06-23T11:59:07.982Z,33.85
2018-06-23T12:01:13.490Z,34.08
2018-06-23T12:03:19.061Z,33.57
2018-06-23T12:05:24.438Z,33.95
2018-06-23T12:07:30.247Z,34.03
2018-06-23T12:09:35.641Z,34.27
2018-06-23T12:11:41.167Z,33.48
2018-06-23T12:13:46.685Z,34.37
2018-06-23T12:15:52.125Z,34.27
2018-06-23T12:17:57.489Z,34.25
2018-06-23T12:20:03.257Z,34.15
2018-06-23T12:22:08.674Z,33.68
2018-06-23T12:24:14.178Z,33.43
2018-06-23T12:26:19.611Z,34.07
2018-06-23T12:28:24.995Z,33.25
2018-06-23T12:30:30.406Z,33.34
2018-06-23T12:32:35.955Z,33.50
2018-06-23T12:34:41.328Z,33.47
2018-06-23T12:36:46.717Z,33.86
2018-06-23T12:38:51.923Z,33.19
2018-06-23T12:40:57.345Z,33.66
2018-06-23T12:43:02.720Z,33.73
2018-06-23T12:45:08.206Z,32.95
2018-06-23T12:47:13.605Z,33.06
2018-06-23T12:49:19.068Z,32.99
2018-06-23T12:51:24.259Z,32.99
2018-06-23T12:53:29.568Z,32.94
2018-06-23T12:55:35.261Z,33.74
2018-06-23T12:57:41.360Z,32.88
2018-06-23T12:59:46.647Z,32.97
2018-06-23T13:01:51.749Z,33.62
2018-06-23T13:03:57.107Z,32.99
2018-06-23T13:06:02.569Z,32.70
2018-06-23T13:08:08.202Z,33.56
2018-06-23T13:10:13.689Z,33.60
2018-06-23T13:12:19.078Z,32.51
2018-06-23T13:14:24.469Z,33.21
2018-06-23T13:16:29.866Z,33.40
2018-06-23T13:18:35.220Z,32.77
2018-06-23T13:20:41.285Z,33.38
2018-06-23T13:22:46.759Z,33.14
2018-06-23T13:24:53.193Z,33.36
2018-06-23T13:26:58.625Z,33.23
2018-06-23T13:29:04.186Z,32.37
2018-06-23T13:31:09.706Z,33.23
2018-06-23T13:33:15.405Z,33.01
2018-06-23T13:35:21.948Z,32.10
2018-06-23T13:37:27.473Z,32.87
2018-06-23T13:39:32.889Z,33.00
2018-06-23T13:41:44.810Z,32.25
2018-06-23T13:43:50.234Z,32.18
2018-06-23T13:45:55.790Z,32.98
2018-06-23T13:48:01.315Z,32.40
2018-06-23T13:50:06.881Z,32.76
2018-06-23T13:52:12.359Z,31.98
2018-06-23T13:54:17.890Z,32.66
2018-06-23T13:56:23.346Z,32.06
2018-06-23T13:58:28.884Z,32.04
2018-06-23T14:00:34.329Z,32.33
2018-06-23T14:02:39.905Z,31.98
2018-06-23T14:04:45.295Z,31.75
2018-06-23T14:06:50.755Z,32.43
2018-06-23T14:08:56.316Z,32.54
2018-06-23T14:11:01.767Z,31.94
2018-06-23T14:13:07.345Z,31.79
2018-06-23T14:15:12.751Z,31.79
2018-06-23T14:17:18.404Z,31.91
2018-06-23T14:19:23.783Z,31.80
2018-06-23T14:21:29.206Z,32.52
2018-06-23T14:23:34.690Z,31.70
2018-06-23T14:25:40.460Z,32.56
2018-06-23T14:27:45.922Z,31.25
2018-06-23T14:29:51.356Z,31.70
2018-06-23T14:31:57.069Z,31.69
2018-06-23T14:34:02.343Z,31.45
2018-06-23T14:36:07.813Z,32.21
2018-06-23T14:38:13.302Z,31.58
2018-06-23T14:40:18.947Z,31.80
2018-06-23T14:42:26.897Z,31.26
2018-06-23T14:44:32.265Z,32.38
2018-06-23T14:46:37.684Z,31.64
2018-06-23T14:48:43.097Z,31.52
2018-06-23T14:50:48.521Z,32.28
2018-06-23T14:52:53.916Z,32.16
2018-06-23T14:54:59.323Z,32.10
2018-06-23T14:57:04.789Z,31.67
2018-06-23T14:59:10.243Z,31.32
2018-06-23T15:01:15.676Z,32.07
2018-06-23T15:03:22.001Z,31.14
2018-06-23T15:05:27.441Z,32.16
2018-06-23T15:07:32.820Z,31.92
2018-06-23T15:11:57.247Z,32.17
2018-06-23T15:14:02.975Z,32.31
2018-06-23T15:16:08.349Z,32.46
2018-06-23T15:18:13.813Z,31.82
2018-06-23T15:20:19.203Z,31.54
2018-06-23T15:22:24.689Z,31.57
2018-06-23T15:24:30.031Z,31.49
2018-06-23T15:26:35.516Z,32.16
2018-06-23T15:28:40.956Z,32.20
2018-06-23T15:30:46.339Z,32.13
2018-06-23T15:32:51.718Z,31.22
2018-06-23T15:34:57.064Z,31.84
2018-06-23T15:37:02.444Z,31.56
2018-06-23T15:39:09.616Z,31.95
2018-06-23T15:41:14.987Z,32.33
2018-06-23T15:43:20.429Z,32.52
2018-06-23T15:45:25.783Z,32.51
2018-06-23T15:47:31.235Z,31.84
2018-06-23T15:49:36.700Z,31.83
2018-06-23T15:51:42.095Z,32.82
2018-06-23T15:53:47.513Z,32.77
2018-06-23T15:55:53.014Z,32.46
2018-06-23T15:57:58.475Z,32.44
2018-06-23T16:00:03.869Z,32.84
2018-06-23T16:02:09.196Z,32.85
2018-06-23T16:04:14.618Z,32.17
2018-06-23T16:06:20.248Z,32.72
2018-06-23T16:08:25.573Z,32.32
2018-06-23T16:10:30.944Z,32.13
2018-06-23T16:12:36.393Z,32.90
2018-06-23T16:14:41.557Z,33.16
2018-06-23T16:16:46.916Z,32.42
2018-06-23T16:18:52.416Z,32.87
2018-06-23T16:20:57.872Z,33.26
2018-06-23T16:23:03.329Z,33.46
2018-06-23T16:25:08.956Z,33.70
2018-06-23T16:27:14.372Z,33.80
2018-06-23T16:29:19.735Z,33.84
2018-06-23T16:31:25.869Z,33.63
2018-06-23T16:33:31.244Z,33.12
2018-06-23T16:35:36.566Z,33.72
2018-06-23T16:37:41.948Z,33.30
2018-06-23T16:39:47.260Z,34.15
2018-06-23T16:41:52.679Z,34.28
2018-06-23T16:43:58.262Z,34.15
2018-06-23T16:46:03.759Z,34.12
2018-06-23T16:48:09.194Z,34.18
2018-06-23T16:50:14.551Z,33.32
2018-06-23T16:52:20.019Z,33.46
2018-06-23T16:54:25.452Z,33.33
2018-06-23T16:56:30.880Z,33.46
2018-06-23T16:58:36.291Z,33.43
2018-06-23T17:00:41.663Z,33.46
2018-06-23T17:02:47.076Z,33.63
2018-06-23T17:04:52.414Z,34.01
2018-06-23T17:06:57.895Z,33.62
2018-06-23T17:09:03.894Z,33.08
2018-06-23T17:11:09.279Z,34.06
2018-06-23T17:13:14.654Z,33.91
2018-06-23T17:15:20.012Z,33.14
2018-06-23T17:17:25.270Z,33.36
2018-06-23T17:19:30.726Z,33.37
2018-06-23T17:21:36.074Z,33.35
2018-06-23T17:23:41.656Z,33.93
2018-06-23T17:25:47.056Z,33.50
2018-06-23T17:27:52.420Z,34.23
2018-06-23T17:29:57.866Z,34.33
2018-06-23T17:32:03.380Z,34.38
2018-06-23T17:34:08.759Z,34.46
2018-06-23T17:36:14.093Z,34.51
2018-06-23T17:38:19.512Z,33.74
2018-06-23T17:40:24.874Z,33.67
2018-06-23T17:42:30.264Z,34.31
2018-06-23T17:44:35.631Z,34.54
2018-06-23T17:46:41.082Z,33.64
2018-06-23T17:48:46.603Z,34.42
2018-06-23T17:50:51.946Z,33.60
2018-06-23T17:52:57.305Z,34.30
2018-06-23T17:55:02.682Z,33.55
2018-06-23T17:57:08.075Z,33.70
2018-06-23T17:59:13.508Z,33.40
2018-06-23T18:01:19.094Z,34.19
2018-06-23T18:03:24.436Z,33.27
2018-06-23T18:05:29.809Z,33.49
2018-06-23T18:07:35.724Z,33.24
2018-06-23T18:09:41.106Z,33.32
2018-06-23T18:11:46.510Z,33.60
2018-06-23T18:13:51.872Z,33.55
2018-06-23T18:15:57.184Z,34.01
2018-06-23T18:18:02.603Z,33.98
2018-06-23T18:20:08.182Z,33.22
2018-06-23T18:22:13.574Z,33.98
2018-06-23T18:24:18.948Z,33.27
2018-06-23T18:26:24.299Z,33.15
2018-06-23T18:28:36.194Z,33.28
2018-06-23T18:30:41.575Z,34.11
2018-06-23T18:32:47.015Z,34.17
2018-06-23T18:34:52.326Z,34.25
2018-06-23T18:36:57.653Z,33.79
2018-06-23T18:39:03.842Z,33.96
2018-06-23T18:41:09.187Z,34.31
2018-06-23T18:43:14.720Z,34.67
2018-06-23T18:45:20.193Z,34.54
2018-06-23T18:47:25.642Z,34.59
2018-06-23T18:49:31.827Z,33.78
2018-06-23T18:51:37.296Z,34.01
2018-06-23T18:53:42.716Z,34.96
2018-06-23T18:55:48.172Z,34.62
2018-06-23T18:57:53.532Z,34.72
2018-06-23T18:59:58.849Z,34.07
2018-06-23T19:02:04.457Z,34.66
2018-06-23T19:04:09.779Z,34.22
2018-06-23T19:06:18.637Z,35.01
2018-06-23T19:08:23.995Z,34.48
2018-06-23T19:10:29.371Z,34.40
2018-06-23T19:12:35.404Z,35.09
2018-06-23T19:14:40.788Z,34.63
2018-06-23T19:16:46.320Z,34.86
2018-06-23T19:18:51.672Z,35.17
2018-06-23T19:20:57.075Z,34.50
2018-06-23T19:23:02.553Z,35.13
2018-06-23T19:25:08.035Z,35.48
2018-06-23T19:27:13.457Z,35.21
2018-06-23T19:29:18.913Z,34.78
2018-06-23T19:31:24.252Z,35.44
2018-06-23T19:33:30.173Z,35.66
2018-06-23T19:35:35.532Z,35.77
2018-06-23T19:37:40.871Z,34.84
2018-06-23T19:39:46.524Z,34.80
2018-06-23T19:41:51.994Z,35.12
2018-06-23T19:43:57.294Z,35.03
2018-06-23T19:46:02.608Z,35.84
2018-06-23T19:48:08.005Z,35.76
2018-06-23T19:50:13.396Z,35.95
2018-06-23T19:52:18.896Z,35.11
2018-06-23T19:54:24.448Z,35.95
2018-06-23T19:56:29.801Z,35.64
2018-06-23T19:58:35.269Z,36.09
2018-06-23T20:00:40.632Z,35.70
2018-06-23T20:02:45.962Z,35.37
2018-06-23T20:04:51.293Z,35.48
2018-06-23T20:06:56.670Z,35.92
2018-06-23T20:09:02.094Z,35.69
2018-06-23T20:11:07.601Z,35.78
2018-06-23T20:13:13.021Z,35.88
2018-06-23T20:15:18.505Z,36.33
2018-06-23T20:17:23.899Z,35.62
2018-06-23T20:19:29.263Z,35.67
2018-06-23T20:21:34.595Z,35.81
2018-06-23T20:23:40.028Z,35.93
2018-06-23T20:25:45.831Z,35.72
2018-06-23T20:27:51.216Z,35.81
2018-06-23T20:29:56.815Z,35.75
2018-06-23T20:32:03.055Z,36.57
2018-06-23T20:34:08.459Z,36.46
2018-06-23T20:36:13.804Z,36.17
2018-06-23T20:38:19.152Z,35.93
2018-06-23T20:40:24.535Z,36.67
2018-06-23T20:42:29.947Z,36.80
2018-06-23T20:44:35.344Z,36.55
2018-06-23T20:46:40.792Z,36.16
2018-06-23T20:48:46.216Z,36.94
2018-06-23T20:50:51.587Z,36.20
2018-06-23T20:52:56.988Z,37.04
2018-06-23T20:55:02.372Z,36.25
2018-06-23T20:57:07.749Z,36.35
2018-06-23T20:59:13.181Z,36.78
2018-06-23T21:01:18.698Z,36.53
2018-06-23T21:03:24.103Z,36.46
2018-06-23T21:05:29.497Z,36.95
2018-06-23T21:07:34.859Z,37.46
2018-06-23T21:09:40.248Z,36.62
2018-06-23T21:11:45.696Z,36.99
2018-06-23T21:13:51.155Z,36.90
2018-06-23T21:15:56.510Z,37.09
2018-06-23T21:18:02.025Z,37.60
2018-06-23T21:20:07.557Z,37.50
2018-06-23T21:22:12.928Z,37.70
2018-06-23T21:24:18.260Z,37.73
2018-06-23T21:26:23.663Z,37.62
2018-06-23T21:28:29.017Z,37.15
2018-06-23T21:30:34.556Z,37.93
2018-06-23T21:32:39.749Z,37.32
2018-06-23T21:34:45.055Z,37.30
2018-06-23T21:36:50.438Z,37.14
2018-06-23T21:38:55.807Z,38.02
2018-06-23T21:41:01.224Z,37.38
2018-06-23T21:43:06.639Z,37.67
2018-06-23T21:45:11.997Z,37.64
2018-06-23T21:47:17.382Z,37.70
2018-06-23T21:49:22.920Z,38.13
2018-06-23T21:51:28.376Z,37.58
2018-06-23T21:53:33.708Z,37.59
2018-06-23T21:55:39.190Z,38.45
2018-06-23T21:57:44.535Z,37.80
2018-06-23T21:59:49.907Z,38.11
2018-06-23T22:01:55.318Z,37.91
2018-06-23T22:04:00.709Z,38.29
2018-06-23T22:06:06.074Z,37.89
2018-06-23T22:08:11.517Z,38.05
2018-06-23T22:10:16.911Z,38.47
2018-06-23T22:12:22.931Z,38.15
2018-06-23T22:14:28.290Z,38.69
2018-06-23T22:16:33.682Z,38.67
2018-06-23T22:18:39.233Z,38.65
2018-06-23T22:20:44.591Z,39.21
2018-06-23T22:22:50.855Z,38.80
2018-06-23T22:24:56.269Z,38.89
2018-06-23T22:27:01.737Z,39.49
2018-06-23T22:29:07.209Z,39.07
2018-06-23T22:31:12.576Z,39.43
2018-06-23T22:33:17.931Z,39.03
2018-06-23T22:35:23.258Z,39.23
2018-06-23T22:37:28.708Z,39.86
2018-06-23T22:39:34.045Z,39.25
2018-06-23T22:41:39.783Z,38.98
2018-06-23T22:43:45.210Z,39.45
2018-06-23T22:45:50.572Z,39.98
2018-06-23T22:47:56.072Z,39.34
2018-06-23T22:50:01.452Z,39.68
2018-06-23T22:52:06.773Z,39.63
2018-06-23T22:54:12.154Z,39.37
2018-06-23T22:56:17.592Z,40.27
2018-06-23T22:58:23.279Z,39.54
2018-06-23T23:00:29.449Z,39.63
2018-06-23T23:02:34.792Z,40.08
2018-06-23T23:04:40.289Z,40.10
2018-06-23T23:06:45.644Z,40.09
2018-06-23T23:08:50.991Z,40.44
2018-06-23T23:10:56.519Z,40.63
2018-06-23T23:13:01.797Z,40.81
2018-06-23T23:15:07.314Z,40.57
2018-06-23T23:17:12.959Z,41.27
2018-06-23T23:19:18.997Z,41.04
2018-06-23T23:21:24.473Z,40.72
2018-06-23T23:23:30.432Z,41.67
2018-06-23T23:25:35.835Z,41.48
2018-06-23T23:27:41.395Z,41.32
2018-06-23T23:29:47.370Z,41.63
2018-06-23T23:31:52.896Z,41.53
2018-06-23T23:33:59.245Z,41.61
2018-06-23T23:36:04.644Z,42.37
2018-06-23T23:38:10.015Z,41.74
2018-06-23T23:40:15.356Z,42.59
2018-06-23T23:42:20.749Z,42.26
2018-06-23T23:44:26.137Z,42.91
2018-06-23T23:46:32.360Z,42.92
2018-06-23T23:48:37.769Z,42.27
2018-06-23T23:50:43.388Z,42.98
2018-06-23T23:52:48.943Z,42.56
2018-06-23T23:54:54.315Z,43.04
2018-06-23T23:56:59.690Z,42.80
2018-06-23T23:59:05.136Z,42.93
